sensor_id;sensor_type;location;lat;lon;timestamp;temperature;humidity
24374;DHT22;12498;50.880;12.096;2022-10-16T00:00:44;15.80;99.90
24374;DHT22;12498;50.880;12.096;2022-10-16T00:03:11;15.90;99.90
24374;DHT22;12498;50.880;12.096;2022-10-16T00:05:42;15.90;99.90
24374;DHT22;12498;50.880;12.096;2022-10-16T00:08:09;15.90;99.90
24374;DHT22;12498;50.880;12.096;2022-10-16T00:10:37;15.90;99.90
24374;DHT22;12498;50.880;12.096;2022-10-16T00:13:04;15.90;99.90
24374;DHT22;12498;50.880;12.096;2022-10-16T00:15:32;15.90;99.90
24374;DHT22;12498;50.880;12.096;2022-10-16T00:18:01;15.90;99.90
24374;DHT22;12498;50.880;12.096;2022-10-16T00:20:26;15.90;99.90
24374;DHT22;12498;50.880;12.096;2022-10-16T00:22:52;15.90;99.90
24374;DHT22;12498;50.880;12.096;2022-10-16T00:25:17;15.90;99.90
24374;DHT22;12498;50.880;12.096;2022-10-16T00:27:43;16.00;99.90
24374;DHT22;12498;50.880;12.096;2022-10-16T00:30:09;16.10;99.90
24374;DHT22;12498;50.880;12.096;2022-10-16T00:32:35;16.00;99.90
24374;DHT22;12498;50.880;12.096;2022-10-16T00:35:00;16.00;99.90
24374;DHT22;12498;50.880;12.096;2022-10-16T00:37:26;16.00;99.90
24374;DHT22;12498;50.880;12.096;2022-10-16T00:39:52;15.90;99.90
24374;DHT22;12498;50.880;12.096;2022-10-16T00:42:18;15.90;99.90
24374;DHT22;12498;50.880;12.096;2022-10-16T00:44:52;15.80;99.90
24374;DHT22;12498;50.880;12.096;2022-10-16T00:49:51;15.80;99.90
24374;DHT22;12498;50.880;12.096;2022-10-16T00:52:18;15.80;99.90
24374;DHT22;12498;50.880;12.096;2022-10-16T00:54:46;15.80;99.90
24374;DHT22;12498;50.880;12.096;2022-10-16T00:57:12;15.70;99.90
24374;DHT22;12498;50.880;12.096;2022-10-16T00:59:40;15.60;99.90
24374;DHT22;12498;50.880;12.096;2022-10-16T01:02:10;15.60;99.90
24374;DHT22;12498;50.880;12.096;2022-10-16T01:04:40;15.60;99.90
24374;DHT22;12498;50.880;12.096;2022-10-16T01:15:31;15.50;99.90
24374;DHT22;12498;50.880;12.096;2022-10-16T01:18:14;15.50;99.90
24374;DHT22;12498;50.880;12.096;2022-10-16T01:21:08;15.40;99.90
24374;DHT22;12498;50.880;12.096;2022-10-16T01:24:07;15.40;99.90
24374;DHT22;12498;50.880;12.096;2022-10-16T01:31:54;15.30;99.90
24374;DHT22;12498;50.880;12.096;2022-10-16T01:34:28;15.30;99.90
24374;DHT22;12498;50.880;12.096;2022-10-16T01:37:02;15.30;99.90
24374;DHT22;12498;50.880;12.096;2022-10-16T01:39:32;15.30;99.90
24374;DHT22;12498;50.880;12.096;2022-10-16T01:42:01;15.30;99.90
24374;DHT22;12498;50.880;12.096;2022-10-16T01:44:32;15.30;99.90
24374;DHT22;12498;50.880;12.096;2022-10-16T01:46:59;15.30;99.90
24374;DHT22;12498;50.880;12.096;2022-10-16T01:49:28;15.30;99.90
24374;DHT22;12498;50.880;12.096;2022-10-16T01:51:57;15.30;99.90
24374;DHT22;12498;50.880;12.096;2022-10-16T01:54:27;15.30;99.90
24374;DHT22;12498;50.880;12.096;2022-10-16T01:56:55;15.30;99.90
24374;DHT22;12498;50.880;12.096;2022-10-16T01:59:24;15.30;99.90
24374;DHT22;12498;50.880;12.096;2022-10-16T02:01:53;15.30;99.90
24374;DHT22;12498;50.880;12.096;2022-10-16T02:04:28;15.30;99.90
24374;DHT22;12498;50.880;12.096;2022-10-16T02:06:54;15.30;99.90
24374;DHT22;12498;50.880;12.096;2022-10-16T02:09:21;15.30;99.90
24374;DHT22;12498;50.880;12.096;2022-10-16T02:11:46;15.30;99.90
24374;DHT22;12498;50.880;12.096;2022-10-16T02:14:14;15.30;99.90
24374;DHT22;12498;50.880;12.096;2022-10-16T02:16:45;15.30;99.90
24374;DHT22;12498;50.880;12.096;2022-10-16T02:19:12;15.30;99.90
24374;DHT22;12498;50.880;12.096;2022-10-16T02:21:51;15.30;99.90
24374;DHT22;12498;50.880;12.096;2022-10-16T02:24:33;15.30;99.90
24374;DHT22;12498;50.880;12.096;2022-10-16T02:27:24;15.30;99.90
24374;DHT22;12498;50.880;12.096;2022-10-16T02:29:59;15.30;99.90
24374;DHT22;12498;50.880;12.096;2022-10-16T02:32:30;15.20;99.90
24374;DHT22;12498;50.880;12.096;2022-10-16T02:34:56;15.20;99.90
24374;DHT22;12498;50.880;12.096;2022-10-16T02:37:24;15.20;99.90
24374;DHT22;12498;50.880;12.096;2022-10-16T02:39:51;15.20;99.90
24374;DHT22;12498;50.880;12.096;2022-10-16T02:42:18;15.20;99.90
24374;DHT22;12498;50.880;12.096;2022-10-16T02:44:44;15.20;99.90
24374;DHT22;12498;50.880;12.096;2022-10-16T02:47:09;15.20;99.90
24374;DHT22;12498;50.880;12.096;2022-10-16T02:49:35;15.20;99.90
24374;DHT22;12498;50.880;12.096;2022-10-16T02:52:00;15.10;99.90
24374;DHT22;12498;50.880;12.096;2022-10-16T02:54:26;15.20;99.90
24374;DHT22;12498;50.880;12.096;2022-10-16T02:56:52;15.10;99.90
24374;DHT22;12498;50.880;12.096;2022-10-16T02:59:17;15.20;99.90
24374;DHT22;12498;50.880;12.096;2022-10-16T03:01:43;15.10;99.90
24374;DHT22;12498;50.880;12.096;2022-10-16T03:04:09;15.10;99.90
24374;DHT22;12498;50.880;12.096;2022-10-16T03:06:34;15.10;99.90
24374;DHT22;12498;50.880;12.096;2022-10-16T03:09:00;15.10;99.90
24374;DHT22;12498;50.880;12.096;2022-10-16T03:11:25;15.10;99.90
24374;DHT22;12498;50.880;12.096;2022-10-16T03:13:52;15.00;99.90
24374;DHT22;12498;50.880;12.096;2022-10-16T03:16:17;15.00;99.90
24374;DHT22;12498;50.880;12.096;2022-10-16T03:18:43;15.00;99.90
24374;DHT22;12498;50.880;12.096;2022-10-16T03:21:09;15.00;99.90
24374;DHT22;12498;50.880;12.096;2022-10-16T03:23:34;15.40;99.90
24374;DHT22;12498;50.880;12.096;2022-10-16T03:26:00;15.00;99.90
24374;DHT22;12498;50.880;12.096;2022-10-16T03:28:25;15.10;99.90
24374;DHT22;12498;50.880;12.096;2022-10-16T03:30:51;15.00;99.90
24374;DHT22;12498;50.880;12.096;2022-10-16T03:33:16;15.00;99.90
24374;DHT22;12498;50.880;12.096;2022-10-16T03:35:42;15.10;99.90
24374;DHT22;12498;50.880;12.096;2022-10-16T03:38:08;15.10;99.90
24374;DHT22;12498;50.880;12.096;2022-10-16T03:40:33;15.10;99.90
24374;DHT22;12498;50.880;12.096;2022-10-16T03:42:59;15.00;99.90
24374;DHT22;12498;50.880;12.096;2022-10-16T03:45:25;15.10;99.90
24374;DHT22;12498;50.880;12.096;2022-10-16T03:47:51;15.10;99.90
24374;DHT22;12498;50.880;12.096;2022-10-16T03:50:17;15.10;99.90
24374;DHT22;12498;50.880;12.096;2022-10-16T03:52:42;15.10;99.90
24374;DHT22;12498;50.880;12.096;2022-10-16T03:55:08;15.10;99.90
24374;DHT22;12498;50.880;12.096;2022-10-16T03:57:34;15.10;99.90
24374;DHT22;12498;50.880;12.096;2022-10-16T03:59:59;15.10;99.90
24374;DHT22;12498;50.880;12.096;2022-10-16T04:02:25;15.10;99.90
24374;DHT22;12498;50.880;12.096;2022-10-16T04:04:50;15.10;99.90
24374;DHT22;12498;50.880;12.096;2022-10-16T04:07:16;15.10;99.90
24374;DHT22;12498;50.880;12.096;2022-10-16T04:09:42;15.00;99.90
24374;DHT22;12498;50.880;12.096;2022-10-16T04:12:07;15.10;99.90
24374;DHT22;12498;50.880;12.096;2022-10-16T04:14:33;15.00;99.90
24374;DHT22;12498;50.880;12.096;2022-10-16T04:16:59;15.00;99.90
24374;DHT22;12498;50.880;12.096;2022-10-16T04:19:25;15.00;99.90
24374;DHT22;12498;50.880;12.096;2022-10-16T04:21:51;14.90;99.90
24374;DHT22;12498;50.880;12.096;2022-10-16T04:24:16;14.90;99.90
24374;DHT22;12498;50.880;12.096;2022-10-16T04:26:42;14.90;99.90
24374;DHT22;12498;50.880;12.096;2022-10-16T04:29:08;14.90;99.90
24374;DHT22;12498;50.880;12.096;2022-10-16T04:31:33;14.90;99.90
24374;DHT22;12498;50.880;12.096;2022-10-16T04:33:59;14.80;99.90
24374;DHT22;12498;50.880;12.096;2022-10-16T04:36:25;14.80;99.90
24374;DHT22;12498;50.880;12.096;2022-10-16T04:38:50;14.90;99.90
24374;DHT22;12498;50.880;12.096;2022-10-16T04:41:16;14.80;99.90
24374;DHT22;12498;50.880;12.096;2022-10-16T04:43:41;14.80;99.90
24374;DHT22;12498;50.880;12.096;2022-10-16T04:46:07;14.70;99.90
24374;DHT22;12498;50.880;12.096;2022-10-16T04:48:33;14.70;99.90
24374;DHT22;12498;50.880;12.096;2022-10-16T04:50:59;14.70;99.90
24374;DHT22;12498;50.880;12.096;2022-10-16T04:53:24;14.60;99.90
24374;DHT22;12498;50.880;12.096;2022-10-16T04:55:50;14.60;99.90
24374;DHT22;12498;50.880;12.096;2022-10-16T04:58:16;14.60;99.90
24374;DHT22;12498;50.880;12.096;2022-10-16T05:00:42;14.60;99.90
24374;DHT22;12498;50.880;12.096;2022-10-16T05:03:08;14.60;99.90
24374;DHT22;12498;50.880;12.096;2022-10-16T05:05:35;14.60;99.90
24374;DHT22;12498;50.880;12.096;2022-10-16T05:08:01;14.50;99.90
24374;DHT22;12498;50.880;12.096;2022-10-16T05:10:27;14.60;99.90
24374;DHT22;12498;50.880;12.096;2022-10-16T05:12:53;14.60;99.90
24374;DHT22;12498;50.880;12.096;2022-10-16T05:15:19;14.60;99.90
24374;DHT22;12498;50.880;12.096;2022-10-16T05:17:45;14.70;99.90
24374;DHT22;12498;50.880;12.096;2022-10-16T05:20:11;14.80;99.90
24374;DHT22;12498;50.880;12.096;2022-10-16T05:22:37;14.80;99.90
24374;DHT22;12498;50.880;12.096;2022-10-16T05:25:02;14.90;99.90
24374;DHT22;12498;50.880;12.096;2022-10-16T05:27:28;15.00;99.90
24374;DHT22;12498;50.880;12.096;2022-10-16T05:29:54;15.00;99.90
24374;DHT22;12498;50.880;12.096;2022-10-16T05:32:19;15.00;99.90
24374;DHT22;12498;50.880;12.096;2022-10-16T05:34:45;15.10;99.90
24374;DHT22;12498;50.880;12.096;2022-10-16T05:37:11;15.10;99.90
24374;DHT22;12498;50.880;12.096;2022-10-16T05:39:37;15.10;99.90
24374;DHT22;12498;50.880;12.096;2022-10-16T05:42:04;15.10;99.90
24374;DHT22;12498;50.880;12.096;2022-10-16T05:44:30;15.10;99.90
24374;DHT22;12498;50.880;12.096;2022-10-16T05:46:55;15.20;99.90
24374;DHT22;12498;50.880;12.096;2022-10-16T05:49:21;15.20;99.90
24374;DHT22;12498;50.880;12.096;2022-10-16T05:51:47;15.20;99.90
24374;DHT22;12498;50.880;12.096;2022-10-16T05:54:12;15.20;99.90
24374;DHT22;12498;50.880;12.096;2022-10-16T05:56:38;15.20;99.90
24374;DHT22;12498;50.880;12.096;2022-10-16T05:59:04;15.20;99.90
24374;DHT22;12498;50.880;12.096;2022-10-16T06:01:30;15.20;99.90
24374;DHT22;12498;50.880;12.096;2022-10-16T06:03:56;15.30;99.90
24374;DHT22;12498;50.880;12.096;2022-10-16T06:06:27;15.30;99.90
24374;DHT22;12498;50.880;12.096;2022-10-16T06:08:54;15.40;99.90
24374;DHT22;12498;50.880;12.096;2022-10-16T06:11:27;15.40;99.90
24374;DHT22;12498;50.880;12.096;2022-10-16T06:13:55;15.40;99.90
24374;DHT22;12498;50.880;12.096;2022-10-16T06:16:22;15.40;99.90
24374;DHT22;12498;50.880;12.096;2022-10-16T06:18:51;15.50;99.90
24374;DHT22;12498;50.880;12.096;2022-10-16T06:21:19;15.50;99.90
24374;DHT22;12498;50.880;12.096;2022-10-16T06:23:45;15.50;99.90
24374;DHT22;12498;50.880;12.096;2022-10-16T06:26:13;15.60;99.90
24374;DHT22;12498;50.880;12.096;2022-10-16T06:28:39;15.60;99.90
24374;DHT22;12498;50.880;12.096;2022-10-16T06:31:06;15.70;99.90
24374;DHT22;12498;50.880;12.096;2022-10-16T06:33:32;15.70;99.90
24374;DHT22;12498;50.880;12.096;2022-10-16T06:36:12;15.70;99.90
24374;DHT22;12498;50.880;12.096;2022-10-16T06:38:38;15.80;99.90
24374;DHT22;12498;50.880;12.096;2022-10-16T06:41:05;15.80;99.90
24374;DHT22;12498;50.880;12.096;2022-10-16T06:43:31;15.80;99.90
24374;DHT22;12498;50.880;12.096;2022-10-16T06:45:58;15.80;99.90
24374;DHT22;12498;50.880;12.096;2022-10-16T06:48:24;15.90;99.90
24374;DHT22;12498;50.880;12.096;2022-10-16T06:51:01;16.00;99.90
24374;DHT22;12498;50.880;12.096;2022-10-16T06:53:31;16.10;99.90
24374;DHT22;12498;50.880;12.096;2022-10-16T06:55:57;16.20;99.90
24374;DHT22;12498;50.880;12.096;2022-10-16T06:58:23;16.20;99.90
24374;DHT22;12498;50.880;12.096;2022-10-16T07:00:54;16.10;99.90
24374;DHT22;12498;50.880;12.096;2022-10-16T07:03:20;16.10;99.90
24374;DHT22;12498;50.880;12.096;2022-10-16T07:05:46;16.10;99.90
24374;DHT22;12498;50.880;12.096;2022-10-16T07:08:12;16.10;99.90
24374;DHT22;12498;50.880;12.096;2022-10-16T07:10:38;16.40;99.90
24374;DHT22;12498;50.880;12.096;2022-10-16T07:13:04;16.40;99.90
24374;DHT22;12498;50.880;12.096;2022-10-16T07:15:29;16.60;99.90
24374;DHT22;12498;50.880;12.096;2022-10-16T07:17:55;16.70;99.90
24374;DHT22;12498;50.880;12.096;2022-10-16T07:20:20;16.80;99.90
24374;DHT22;12498;50.880;12.096;2022-10-16T07:22:46;16.90;99.90
24374;DHT22;12498;50.880;12.096;2022-10-16T07:25:12;17.00;99.90
24374;DHT22;12498;50.880;12.096;2022-10-16T07:27:38;17.10;99.90
24374;DHT22;12498;50.880;12.096;2022-10-16T07:30:04;17.10;99.90
24374;DHT22;12498;50.880;12.096;2022-10-16T07:32:31;17.10;99.90
24374;DHT22;12498;50.880;12.096;2022-10-16T07:34:57;17.10;99.90
24374;DHT22;12498;50.880;12.096;2022-10-16T07:37:22;17.10;99.90
24374;DHT22;12498;50.880;12.096;2022-10-16T07:39:48;17.10;99.90
24374;DHT22;12498;50.880;12.096;2022-10-16T07:42:13;17.00;99.90
24374;DHT22;12498;50.880;12.096;2022-10-16T07:44:39;17.00;99.90
24374;DHT22;12498;50.880;12.096;2022-10-16T07:47:06;17.00;99.90
24374;DHT22;12498;50.880;12.096;2022-10-16T07:49:32;17.10;99.90
24374;DHT22;12498;50.880;12.096;2022-10-16T07:51:57;17.10;99.90
24374;DHT22;12498;50.880;12.096;2022-10-16T07:54:23;17.10;99.90
24374;DHT22;12498;50.880;12.096;2022-10-16T07:56:49;17.20;99.90
24374;DHT22;12498;50.880;12.096;2022-10-16T07:59:14;17.20;99.90
24374;DHT22;12498;50.880;12.096;2022-10-16T08:01:40;17.30;99.90
24374;DHT22;12498;50.880;12.096;2022-10-16T08:04:09;17.30;99.90
24374;DHT22;12498;50.880;12.096;2022-10-16T08:06:38;17.40;99.90
24374;DHT22;12498;50.880;12.096;2022-10-16T08:09:04;17.30;99.90
24374;DHT22;12498;50.880;12.096;2022-10-16T08:11:30;17.30;99.90
24374;DHT22;12498;50.880;12.096;2022-10-16T08:13:56;17.40;99.90
24374;DHT22;12498;50.880;12.096;2022-10-16T08:16:22;17.50;99.90
24374;DHT22;12498;50.880;12.096;2022-10-16T08:18:47;17.50;99.90
24374;DHT22;12498;50.880;12.096;2022-10-16T08:21:18;17.50;99.90
24374;DHT22;12498;50.880;12.096;2022-10-16T08:23:45;17.50;99.90
24374;DHT22;12498;50.880;12.096;2022-10-16T08:26:12;17.40;99.90
24374;DHT22;12498;50.880;12.096;2022-10-16T08:28:38;17.40;99.90
24374;DHT22;12498;50.880;12.096;2022-10-16T08:31:12;17.50;99.90
24374;DHT22;12498;50.880;12.096;2022-10-16T08:33:41;17.60;99.90
24374;DHT22;12498;50.880;12.096;2022-10-16T08:36:07;17.80;99.90
24374;DHT22;12498;50.880;12.096;2022-10-16T08:38:33;17.90;99.90
24374;DHT22;12498;50.880;12.096;2022-10-16T08:41:21;18.00;99.90
24374;DHT22;12498;50.880;12.096;2022-10-16T08:46:43;18.10;99.90
24374;DHT22;12498;50.880;12.096;2022-10-16T08:49:14;18.10;99.90
24374;DHT22;12498;50.880;12.096;2022-10-16T08:51:40;18.10;99.90
24374;DHT22;12498;50.880;12.096;2022-10-16T08:56:38;18.20;99.90
24374;DHT22;12498;50.880;12.096;2022-10-16T08:59:06;18.20;99.90
24374;DHT22;12498;50.880;12.096;2022-10-16T09:01:41;18.30;99.90
24374;DHT22;12498;50.880;12.096;2022-10-16T09:10:01;18.30;99.90
24374;DHT22;12498;50.880;12.096;2022-10-16T09:12:31;18.30;99.90
24374;DHT22;12498;50.880;12.096;2022-10-16T09:18:02;18.40;99.90
24374;DHT22;12498;50.880;12.096;2022-10-16T09:20:51;18.30;99.90
24374;DHT22;12498;50.880;12.096;2022-10-16T09:23:28;18.30;99.90
24374;DHT22;12498;50.880;12.096;2022-10-16T09:25:55;18.30;99.90
24374;DHT22;12498;50.880;12.096;2022-10-16T09:28:22;18.30;99.90
24374;DHT22;12498;50.880;12.096;2022-10-16T09:30:48;18.30;99.90
24374;DHT22;12498;50.880;12.096;2022-10-16T09:33:16;18.40;99.90
24374;DHT22;12498;50.880;12.096;2022-10-16T09:35:44;18.40;99.90
24374;DHT22;12498;50.880;12.096;2022-10-16T09:38:28;18.40;99.90
24374;DHT22;12498;50.880;12.096;2022-10-16T09:40:55;18.50;99.90
24374;DHT22;12498;50.880;12.096;2022-10-16T09:46:04;18.70;99.90
24374;DHT22;12498;50.880;12.096;2022-10-16T09:48:37;18.70;99.90
24374;DHT22;12498;50.880;12.096;2022-10-16T09:51:06;18.90;99.90
24374;DHT22;12498;50.880;12.096;2022-10-16T09:53:43;19.00;99.90
24374;DHT22;12498;50.880;12.096;2022-10-16T09:56:22;19.10;99.90
24374;DHT22;12498;50.880;12.096;2022-10-16T09:58:52;19.10;99.90
24374;DHT22;12498;50.880;12.096;2022-10-16T10:01:19;19.20;99.90
24374;DHT22;12498;50.880;12.096;2022-10-16T10:03:46;19.30;99.90
24374;DHT22;12498;50.880;12.096;2022-10-16T10:06:28;19.50;99.90
24374;DHT22;12498;50.880;12.096;2022-10-16T10:08:55;19.60;99.90
24374;DHT22;12498;50.880;12.096;2022-10-16T10:11:41;19.60;99.90
24374;DHT22;12498;50.880;12.096;2022-10-16T10:14:25;19.50;99.90
24374;DHT22;12498;50.880;12.096;2022-10-16T10:20:00;19.40;99.90
24374;DHT22;12498;50.880;12.096;2022-10-16T10:38:55;19.40;99.90
24374;DHT22;12498;50.880;12.096;2022-10-16T10:42:00;19.40;99.90
24374;DHT22;12498;50.880;12.096;2022-10-16T10:50:26;19.50;99.90
24374;DHT22;12498;50.880;12.096;2022-10-16T10:55:48;19.80;99.90
24374;DHT22;12498;50.880;12.096;2022-10-16T10:58:42;20.00;99.90
24374;DHT22;12498;50.880;12.096;2022-10-16T11:07:04;20.40;99.90
24374;DHT22;12498;50.880;12.096;2022-10-16T11:09:38;20.60;99.90
24374;DHT22;12498;50.880;12.096;2022-10-16T11:12:26;20.70;99.90
24374;DHT22;12498;50.880;12.096;2022-10-16T11:15:15;20.80;99.90
24374;DHT22;12498;50.880;12.096;2022-10-16T11:17:44;20.70;99.90
24374;DHT22;12498;50.880;12.096;2022-10-16T11:20:19;20.80;96.10
24374;DHT22;12498;50.880;12.096;2022-10-16T11:23:00;20.80;96.60
24374;DHT22;12498;50.880;12.096;2022-10-16T11:27:59;20.80;99.90
24374;DHT22;12498;50.880;12.096;2022-10-16T11:30:31;20.70;94.90
24374;DHT22;12498;50.880;12.096;2022-10-16T11:35:41;20.80;94.60
24374;DHT22;12498;50.880;12.096;2022-10-16T11:41:17;20.70;90.60
24374;DHT22;12498;50.880;12.096;2022-10-16T11:44:02;20.50;95.60
24374;DHT22;12498;50.880;12.096;2022-10-16T11:46:32;20.50;99.90
24374;DHT22;12498;50.880;12.096;2022-10-16T11:52:23;20.40;99.90
24374;DHT22;12498;50.880;12.096;2022-10-16T11:54:52;20.40;99.90
24374;DHT22;12498;50.880;12.096;2022-10-16T11:58:05;20.20;99.90
24374;DHT22;12498;50.880;12.096;2022-10-16T12:00:24;20.10;99.90
24374;DHT22;12498;50.880;12.096;2022-10-16T12:03:03;20.20;99.90
24374;DHT22;12498;50.880;12.096;2022-10-16T12:05:55;20.20;99.90
24374;DHT22;12498;50.880;12.096;2022-10-16T12:08:24;20.30;99.90
24374;DHT22;12498;50.880;12.096;2022-10-16T12:10:50;20.30;99.90
24374;DHT22;12498;50.880;12.096;2022-10-16T12:13:32;20.30;99.90
24374;DHT22;12498;50.880;12.096;2022-10-16T12:18:41;20.10;99.90
24374;DHT22;12498;50.880;12.096;2022-10-16T12:21:08;20.10;99.90
24374;DHT22;12498;50.880;12.096;2022-10-16T12:23:54;20.10;99.90
24374;DHT22;12498;50.880;12.096;2022-10-16T12:26:32;20.10;99.90
24374;DHT22;12498;50.880;12.096;2022-10-16T12:31:53;20.40;99.90
24374;DHT22;12498;50.880;12.096;2022-10-16T12:34:36;20.50;99.90
24374;DHT22;12498;50.880;12.096;2022-10-16T12:37:14;20.70;99.90
24374;DHT22;12498;50.880;12.096;2022-10-16T12:39:44;20.90;99.90
24374;DHT22;12498;50.880;12.096;2022-10-16T12:44:55;21.10;99.70
24374;DHT22;12498;50.880;12.096;2022-10-16T12:49:52;21.10;96.80
24374;DHT22;12498;50.880;12.096;2022-10-16T12:52:28;21.20;98.40
24374;DHT22;12498;50.880;12.096;2022-10-16T12:54:57;21.30;90.80
24374;DHT22;12498;50.880;12.096;2022-10-16T13:20:02;21.20;79.40
24374;DHT22;12498;50.880;12.096;2022-10-16T13:22:45;21.10;72.80
24374;DHT22;12498;50.880;12.096;2022-10-16T13:28:09;20.90;86.20
24374;DHT22;12498;50.880;12.096;2022-10-16T13:30:43;20.90;88.20
24374;DHT22;12498;50.880;12.096;2022-10-16T13:35:36;21.20;79.60
24374;DHT22;12498;50.880;12.096;2022-10-16T13:38:17;21.10;81.90
24374;DHT22;12498;50.880;12.096;2022-10-16T13:41:05;21.00;72.00
24374;DHT22;12498;50.880;12.096;2022-10-16T13:43:40;21.10;79.50
24374;DHT22;12498;50.880;12.096;2022-10-16T13:46:13;21.00;72.40
24374;DHT22;12498;50.880;12.096;2022-10-16T13:48:40;21.00;80.20
24374;DHT22;12498;50.880;12.096;2022-10-16T13:51:13;21.00;73.80
24374;DHT22;12498;50.880;12.096;2022-10-16T13:53:39;21.10;68.70
24374;DHT22;12498;50.880;12.096;2022-10-16T13:56:09;21.10;65.90
24374;DHT22;12498;50.880;12.096;2022-10-16T13:58:35;21.10;59.40
24374;DHT22;12498;50.880;12.096;2022-10-16T14:01:04;21.00;59.90
24374;DHT22;12498;50.880;12.096;2022-10-16T14:03:31;20.90;59.50
24374;DHT22;12498;50.880;12.096;2022-10-16T14:06:02;20.90;62.10
24374;DHT22;12498;50.880;12.096;2022-10-16T14:08:29;20.80;60.40
24374;DHT22;12498;50.880;12.096;2022-10-16T14:10:57;20.80;66.10
24374;DHT22;12498;50.880;12.096;2022-10-16T14:13:31;20.90;61.00
24374;DHT22;12498;50.880;12.096;2022-10-16T14:16:05;20.90;60.90
24374;DHT22;12498;50.880;12.096;2022-10-16T14:18:32;20.80;58.70
24374;DHT22;12498;50.880;12.096;2022-10-16T14:21:03;20.70;64.80
24374;DHT22;12498;50.880;12.096;2022-10-16T14:23:33;20.70;67.40
24374;DHT22;12498;50.880;12.096;2022-10-16T14:28:36;20.80;63.60
24374;DHT22;12498;50.880;12.096;2022-10-16T14:31:16;20.70;63.70
24374;DHT22;12498;50.880;12.096;2022-10-16T14:33:47;20.60;69.60
24374;DHT22;12498;50.880;12.096;2022-10-16T14:36:14;20.50;71.40
24374;DHT22;12498;50.880;12.096;2022-10-16T14:38:42;20.60;71.70
24374;DHT22;12498;50.880;12.096;2022-10-16T14:41:09;20.60;66.30
24374;DHT22;12498;50.880;12.096;2022-10-16T14:43:42;20.60;65.20
24374;DHT22;12498;50.880;12.096;2022-10-16T14:46:19;20.70;65.80
24374;DHT22;12498;50.880;12.096;2022-10-16T14:48:50;20.70;65.10
24374;DHT22;12498;50.880;12.096;2022-10-16T14:51:17;20.70;70.30
24374;DHT22;12498;50.880;12.096;2022-10-16T14:53:43;20.60;64.90
24374;DHT22;12498;50.880;12.096;2022-10-16T14:56:16;20.60;71.60
24374;DHT22;12498;50.880;12.096;2022-10-16T14:58:42;20.50;75.50
24374;DHT22;12498;50.880;12.096;2022-10-16T15:01:10;20.50;78.90
24374;DHT22;12498;50.880;12.096;2022-10-16T15:03:40;20.50;73.60
24374;DHT22;12498;50.880;12.096;2022-10-16T15:06:12;20.50;78.10
24374;DHT22;12498;50.880;12.096;2022-10-16T15:08:39;20.30;86.50
24374;DHT22;12498;50.880;12.096;2022-10-16T15:11:08;20.20;84.80
24374;DHT22;12498;50.880;12.096;2022-10-16T15:13:35;20.20;91.10
24374;DHT22;12498;50.880;12.096;2022-10-16T15:16:01;20.10;93.90
24374;DHT22;12498;50.880;12.096;2022-10-16T15:18:26;20.10;94.20
24374;DHT22;12498;50.880;12.096;2022-10-16T15:20:52;20.10;94.40
24374;DHT22;12498;50.880;12.096;2022-10-16T15:23:23;20.00;94.90
24374;DHT22;12498;50.880;12.096;2022-10-16T15:25:54;19.90;96.80
24374;DHT22;12498;50.880;12.096;2022-10-16T15:28:21;19.90;99.80
24374;DHT22;12498;50.880;12.096;2022-10-16T15:30:50;19.80;99.90
24374;DHT22;12498;50.880;12.096;2022-10-16T15:33:18;19.70;99.90
24374;DHT22;12498;50.880;12.096;2022-10-16T15:35:48;19.70;99.90
24374;DHT22;12498;50.880;12.096;2022-10-16T15:38:15;19.60;99.90
24374;DHT22;12498;50.880;12.096;2022-10-16T15:40:41;19.60;99.90
24374;DHT22;12498;50.880;12.096;2022-10-16T15:43:07;19.60;99.90
24374;DHT22;12498;50.880;12.096;2022-10-16T15:45:34;19.60;99.90
24374;DHT22;12498;50.880;12.096;2022-10-16T15:47:59;19.60;99.90
24374;DHT22;12498;50.880;12.096;2022-10-16T15:50:25;19.60;99.90
24374;DHT22;12498;50.880;12.096;2022-10-16T15:52:51;19.60;99.90
24374;DHT22;12498;50.880;12.096;2022-10-16T15:55:17;19.50;99.90
24374;DHT22;12498;50.880;12.096;2022-10-16T15:57:45;19.60;99.90
24374;DHT22;12498;50.880;12.096;2022-10-16T16:00:14;19.30;99.90
24374;DHT22;12498;50.880;12.096;2022-10-16T16:02:41;19.30;99.90
24374;DHT22;12498;50.880;12.096;2022-10-16T16:05:08;19.20;99.90
24374;DHT22;12498;50.880;12.096;2022-10-16T16:07:37;19.10;99.90
24374;DHT22;12498;50.880;12.096;2022-10-16T16:10:06;19.00;99.90
24374;DHT22;12498;50.880;12.096;2022-10-16T16:12:32;18.90;99.90
24374;DHT22;12498;50.880;12.096;2022-10-16T16:14:58;18.80;99.90
24374;DHT22;12498;50.880;12.096;2022-10-16T16:17:24;18.80;99.90
24374;DHT22;12498;50.880;12.096;2022-10-16T16:19:50;18.60;99.90
24374;DHT22;12498;50.880;12.096;2022-10-16T16:22:15;18.60;99.90
24374;DHT22;12498;50.880;12.096;2022-10-16T16:24:41;18.50;99.90
24374;DHT22;12498;50.880;12.096;2022-10-16T16:27:07;18.40;99.90
24374;DHT22;12498;50.880;12.096;2022-10-16T16:29:32;18.30;99.90
24374;DHT22;12498;50.880;12.096;2022-10-16T16:31:59;18.30;99.90
24374;DHT22;12498;50.880;12.096;2022-10-16T16:34:26;18.20;99.90
24374;DHT22;12498;50.880;12.096;2022-10-16T16:36:52;18.10;99.90
24374;DHT22;12498;50.880;12.096;2022-10-16T16:39:18;18.00;99.90
24374;DHT22;12498;50.880;12.096;2022-10-16T16:41:44;17.90;99.90
24374;DHT22;12498;50.880;12.096;2022-10-16T16:44:11;17.90;99.90
24374;DHT22;12498;50.880;12.096;2022-10-16T16:46:37;17.90;99.90
24374;DHT22;12498;50.880;12.096;2022-10-16T16:49:05;17.80;99.90
24374;DHT22;12498;50.880;12.096;2022-10-16T16:51:32;17.70;99.90
24374;DHT22;12498;50.880;12.096;2022-10-16T16:53:57;17.70;99.90
24374;DHT22;12498;50.880;12.096;2022-10-16T16:56:23;17.60;99.90
24374;DHT22;12498;50.880;12.096;2022-10-16T16:58:51;17.50;99.90
24374;DHT22;12498;50.880;12.096;2022-10-16T17:01:17;17.50;99.90
24374;DHT22;12498;50.880;12.096;2022-10-16T17:03:44;17.40;99.90
24374;DHT22;12498;50.880;12.096;2022-10-16T17:06:12;17.40;99.90
24374;DHT22;12498;50.880;12.096;2022-10-16T17:08:38;17.20;99.90
24374;DHT22;12498;50.880;12.096;2022-10-16T17:11:04;17.30;99.90
24374;DHT22;12498;50.880;12.096;2022-10-16T17:13:32;17.30;99.90
24374;DHT22;12498;50.880;12.096;2022-10-16T17:16:04;17.20;99.90
24374;DHT22;12498;50.880;12.096;2022-10-16T17:18:30;17.20;99.90
24374;DHT22;12498;50.880;12.096;2022-10-16T17:21:00;17.10;99.90
24374;DHT22;12498;50.880;12.096;2022-10-16T17:23:26;17.10;99.90
24374;DHT22;12498;50.880;12.096;2022-10-16T17:25:52;17.10;99.90